Time;durP1;ratioP1;P1;durP2;ratioP2;P2;SDS_P1;SDS_P2;PMS_P1;PMS_P2;Temp;Humidity;BMP_temperature;BMP_pressure;BME280_temperature;BME280_humidity;BME280_pressure;Samples;Min_cycle;Max_cycle;Signal;HPM_P1;HPM_P2
2023/05/14 00:02:12;;;;;;;12.30;8.80;;;;;;;16.79;56.71;101170.25;107530;1259;75971;-88
2023/05/14 00:04:39;;;;;;;12.00;9.10;;;;;;;16.71;56.67;101172.92;107712;1264;75125;-89
2023/05/14 00:07:06;;;;;;;13.50;9.20;;;;;;;16.62;56.68;101176.02;107465;1261;73263;-91
2023/05/14 00:09:35;;;;;;;14.10;10.10;;;;;;;16.58;56.80;101175.27;107532;1259;64370;-88
2023/05/14 00:12:02;;;;;;;14.00;9.40;;;;;;;16.59;57.07;101176.48;107559;1259;61302;-89
2023/05/14 00:14:31;;;;;;;14.40;10.10;;;;;;;16.61;57.14;101176.13;107494;1259;76105;-89
2023/05/14 00:16:58;;;;;;;13.10;9.40;;;;;;;16.62;57.41;101177.65;107466;1259;73357;-89
2023/05/14 00:19:26;;;;;;;11.80;10.20;;;;;;;16.63;57.58;101179.26;107557;1263;73619;-87
2023/05/14 00:21:53;;;;;;;13.10;10.60;;;;;;;16.63;57.71;101183.09;107516;1264;61296;-88
2023/05/14 00:24:20;;;;;;;15.70;11.30;;;;;;;16.61;58.04;101180.11;107474;1259;61175;-87
2023/05/14 00:26:47;;;;;;;14.80;10.90;;;;;;;16.60;58.23;101180.14;107648;1259;77153;-88
2023/05/14 00:29:14;;;;;;;15.40;11.60;;;;;;;16.55;58.87;101176.46;107517;1259;72814;-88
2023/05/14 00:31:41;;;;;;;12.50;10.50;;;;;;;16.50;58.89;101176.49;107631;1259;71644;-88
2023/05/14 00:34:08;;;;;;;12.00;9.70;;;;;;;16.44;58.42;101174.02;107458;1259;61681;-88
2023/05/14 00:36:35;;;;;;;12.60;10.60;;;;;;;16.38;58.11;101171.30;107505;1259;59444;-87
2023/05/14 00:39:03;;;;;;;15.20;10.40;;;;;;;16.36;58.00;101171.86;107510;1259;76126;-88
2023/05/14 00:41:30;;;;;;;15.00;10.90;;;;;;;16.38;57.91;101168.06;107556;1259;74649;-87
2023/05/14 00:43:57;;;;;;;15.30;11.60;;;;;;;16.39;57.89;101168.23;107649;1259;75098;-89
2023/05/14 00:46:25;;;;;;;14.10;10.10;;;;;;;16.43;57.92;101165.34;107607;1259;61315;-88
2023/05/14 00:48:52;;;;;;;13.50;10.50;;;;;;;16.44;57.67;101171.04;107507;1259;62198;-88
2023/05/14 00:51:20;;;;;;;14.70;9.80;;;;;;;16.47;57.51;101167.90;107704;1259;74642;-89
2023/05/14 00:53:47;;;;;;;14.30;10.80;;;;;;;16.49;57.13;101170.85;107608;1259;73372;-88
2023/05/14 00:56:14;;;;;;;15.70;11.40;;;;;;;16.52;56.90;101169.09;107553;1260;74227;-89
2023/05/14 00:58:41;;;;;;;13.10;10.10;;;;;;;16.56;56.66;101169.44;107684;1261;59345;-88
2023/05/14 01:01:08;;;;;;;15.50;10.90;;;;;;;16.60;56.50;101168.17;107639;1259;61155;-88
2023/05/14 01:03:35;;;;;;;13.80;10.10;;;;;;;16.64;56.18;101166.90;107518;1259;74513;-89
2023/05/14 01:06:11;;;;;;;15.20;10.60;;;;;;;16.65;56.11;101166.84;107468;1259;71292;-88
2023/05/14 01:08:53;;;;;;;16.20;10.60;;;;;;;16.64;55.92;101168.18;107523;1259;72953;-89
2023/05/14 01:11:27;;;;;;;12.90;10.40;;;;;;;16.64;55.92;101167.65;107468;1261;62888;-89
2023/05/14 01:14:15;;;;;;;18.50;14.20;;;;;;;16.65;55.86;101171.90;107464;1259;61476;-88
2023/05/14 01:16:43;;;;;;;16.90;11.50;;;;;;;16.62;56.00;101172.15;107508;1259;73481;-88
2023/05/14 01:19:20;;;;;;;15.20;11.80;;;;;;;16.59;56.12;101178.91;107482;1259;73313;-87
2023/05/14 01:21:47;;;;;;;16.80;12.90;;;;;;;16.51;56.25;101178.48;107502;1260;70620;-87
2023/05/14 01:24:15;;;;;;;16.20;11.20;;;;;;;16.43;56.38;101183.13;107670;1259;62588;-87
2023/05/14 01:26:42;;;;;;;19.10;12.40;;;;;;;16.40;56.44;101186.93;107705;1259;59933;-88
2023/05/14 01:29:18;;;;;;;19.00;11.90;;;;;;;16.40;56.54;101185.53;107661;1260;75830;-87
2023/05/14 01:31:46;;;;;;;15.10;11.70;;;;;;;16.40;56.66;101182.02;107720;1259;71486;-88
2023/05/14 01:34:13;;;;;;;15.60;12.40;;;;;;;16.40;56.68;101183.86;107619;1259;73054;-89
2023/05/14 01:36:40;;;;;;;15.40;11.50;;;;;;;16.39;56.80;101184.89;107611;1259;61292;-89
2023/05/14 01:39:10;;;;;;;13.80;11.20;;;;;;;16.37;56.82;101183.48;107642;1259;61247;-88
2023/05/14 01:41:38;;;;;;;15.10;11.30;;;;;;;16.34;56.94;101178.83;107644;1265;76938;-89
2023/05/14 01:44:05;;;;;;;15.30;11.00;;;;;;;16.30;57.03;101175.94;107614;1259;73707;-89
2023/05/14 01:46:32;;;;;;;15.20;11.90;;;;;;;16.23;57.21;101176.47;107631;1259;71129;-89
2023/05/14 01:49:00;;;;;;;14.10;11.10;;;;;;;16.18;57.46;101174.78;107633;1259;60442;-89
2023/05/14 01:51:27;;;;;;;14.10;10.30;;;;;;;16.11;57.58;101172.45;107647;1259;62408;-89
2023/05/14 01:53:54;;;;;;;14.80;10.70;;;;;;;16.05;57.73;101172.92;107736;1259;74074;-91
2023/05/14 01:56:22;;;;;;;14.40;10.90;;;;;;;16.01;57.84;101171.85;107733;1264;72759;-88
2023/05/14 01:58:50;;;;;;;15.40;11.50;;;;;;;15.96;57.97;101177.16;107644;1261;73637;-88
2023/05/14 02:01:17;;;;;;;15.80;11.20;;;;;;;15.90;58.12;101178.70;107683;1264;64467;-88
2023/05/14 02:03:44;;;;;;;16.50;10.60;;;;;;;15.85;58.21;101179.38;107655;1259;62493;-88
2023/05/14 02:06:11;;;;;;;13.70;10.60;;;;;;;15.80;58.32;101180.62;107659;1259;74587;-89
2023/05/14 02:08:38;;;;;;;16.50;11.10;;;;;;;15.74;58.53;101178.62;107689;1259;73910;-88
2023/05/14 02:11:05;;;;;;;13.80;10.90;;;;;;;15.68;58.70;101180.38;107614;1259;72169;-89
2023/05/14 02:13:32;;;;;;;14.00;10.80;;;;;;;15.64;58.81;101175.98;107709;1259;61720;-89
2023/05/14 02:16:00;;;;;;;12.40;10.40;;;;;;;15.63;59.12;101181.43;107615;1260;61115;-89
2023/05/14 02:18:27;;;;;;;14.90;10.90;;;;;;;15.62;59.20;101182.35;107622;1259;76341;-89
2023/05/14 02:20:54;;;;;;;15.50;11.00;;;;;;;15.61;59.26;101182.30;107726;1259;72284;-90
2023/05/14 02:23:22;;;;;;;14.70;11.00;;;;;;;15.57;59.29;101177.31;107612;1259;71670;-89
2023/05/14 02:26:05;;;;;;;14.00;10.90;;;;;;;15.45;59.53;101178.97;107783;1259;61023;-89
2023/05/14 02:28:32;;;;;;;12.90;11.20;;;;;;;15.39;59.85;101173.77;107626;1259;61098;-87
2023/05/14 02:31:02;;;;;;;13.70;10.90;;;;;;;15.39;60.00;101175.85;107577;1259;75849;-88
2023/05/14 02:33:29;;;;;;;14.80;10.30;;;;;;;15.38;60.10;101174.04;107613;1259;72964;-88
2023/05/14 02:35:56;;;;;;;12.60;10.00;;;;;;;15.30;60.26;101172.55;107659;1261;73592;-89
2023/05/14 02:38:24;;;;;;;11.00;9.90;;;;;;;15.17;60.47;101172.97;107835;1259;64347;-89
2023/05/14 02:40:51;;;;;;;11.70;10.20;;;;;;;15.06;60.81;101178.30;107721;1260;61365;-89
2023/05/14 02:43:18;;;;;;;12.60;11.20;;;;;;;14.93;61.05;101177.20;107764;1259;75867;-90
2023/05/14 02:45:46;;;;;;;15.00;11.50;;;;;;;14.85;61.28;101178.49;107742;1259;72301;-90
2023/05/14 02:48:13;;;;;;;15.00;11.40;;;;;;;14.85;61.33;101173.21;107530;1260;71495;-89
2023/05/14 02:50:40;;;;;;;13.50;10.60;;;;;;;14.90;61.39;101171.05;107565;1259;64047;-88
2023/05/14 02:53:07;;;;;;;14.60;10.80;;;;;;;14.97;61.44;101172.88;107504;1259;61144;-88
2023/05/14 02:55:35;;;;;;;12.30;10.40;;;;;;;15.05;61.27;101178.04;107719;1259;74796;-90
2023/05/14 02:58:02;;;;;;;13.40;10.70;;;;;;;15.04;61.18;101176.74;107765;1259;72514;-87
2023/05/14 03:00:29;;;;;;;13.20;11.20;;;;;;;15.01;61.27;101177.99;107654;1259;75232;-90
2023/05/14 03:02:59;;;;;;;15.80;11.10;;;;;;;15.05;61.29;101174.86;107612;1265;61100;-89
2023/05/14 03:05:26;;;;;;;14.60;11.30;;;;;;;15.14;61.33;101171.03;107634;1259;61254;-90
2023/05/14 03:07:54;;;;;;;15.00;11.30;;;;;;;15.21;61.29;101168.21;107692;1259;74427;-89
2023/05/14 03:10:21;;;;;;;13.80;11.10;;;;;;;15.29;61.35;101168.58;107745;1259;73265;-91
2023/05/14 03:12:49;;;;;;;16.60;11.20;;;;;;;15.36;61.31;101169.95;107686;1259;72349;-89
2023/05/14 03:15:16;;;;;;;17.30;10.90;;;;;;;15.43;61.33;101167.40;107727;1259;62924;-89
2023/05/14 03:17:43;;;;;;;13.10;9.90;;;;;;;15.51;61.32;101167.10;107583;1259;61135;-90
2023/05/14 03:20:12;;;;;;;14.60;10.60;;;;;;;15.59;61.40;101167.88;107673;1259;73072;-88
2023/05/14 03:22:39;;;;;;;12.50;9.80;;;;;;;15.65;61.32;101167.21;107790;1259;74821;-90
2023/05/14 03:25:08;;;;;;;12.60;10.10;;;;;;;15.73;61.45;101169.36;107565;1259;72861;-89
2023/05/14 03:27:35;;;;;;;10.50;9.40;;;;;;;15.81;61.46;101173.31;107692;1259;62853;-90
2023/05/14 03:30:03;;;;;;;11.30;9.80;;;;;;;15.91;61.65;101173.04;107772;1259;61124;-89
2023/05/14 03:32:31;;;;;;;14.70;10.30;;;;;;;16.03;61.55;101173.58;107501;1259;76800;-90
2023/05/14 03:34:58;;;;;;;11.20;9.10;;;;;;;16.17;61.43;101179.53;107638;1259;72457;-90
2023/05/14 03:37:25;;;;;;;13.40;10.30;;;;;;;16.30;61.30;101184.35;107643;1259;72641;-89
2023/05/14 03:39:54;;;;;;;13.10;9.70;;;;;;;16.38;61.28;101178.42;107768;1259;61168;-90
2023/05/14 03:42:21;;;;;;;12.70;10.20;;;;;;;16.49;60.98;101182.23;107584;1259;61490;-89
2023/05/14 03:44:48;;;;;;;12.80;10.30;;;;;;;16.60;60.74;101183.65;107630;1260;77065;-89
2023/05/14 03:47:15;;;;;;;13.10;10.60;;;;;;;16.69;60.48;101184.34;107717;1259;73099;-90
2023/05/14 03:49:42;;;;;;;13.90;10.40;;;;;;;16.77;60.34;101182.94;107553;1259;74406;-90
2023/05/14 03:52:10;;;;;;;14.70;10.10;;;;;;;16.86;60.04;101181.52;107617;1260;62058;-90
2023/05/14 03:54:37;;;;;;;11.80;9.30;;;;;;;16.98;59.81;101180.12;107643;1259;61750;-89
2023/05/14 03:57:04;;;;;;;13.20;9.50;;;;;;;17.12;59.45;101180.63;107626;1260;76650;-89
2023/05/14 03:59:31;;;;;;;12.50;9.70;;;;;;;17.25;59.10;101175.90;107570;1259;74041;-89
2023/05/14 04:01:58;;;;;;;14.60;9.80;;;;;;;17.41;58.67;101179.02;107572;1260;71116;-90
2023/05/14 04:04:25;;;;;;;11.90;9.30;;;;;;;17.58;58.55;101174.73;107581;1265;61133;-90
2023/05/14 04:06:53;;;;;;;11.70;9.10;;;;;;;17.77;58.25;101175.79;107662;1259;62639;-91
2023/05/14 04:09:20;;;;;;;12.80;8.40;;;;;;;17.96;58.02;101168.36;107596;1259;76641;-89
2023/05/14 04:11:47;;;;;;;10.10;8.10;;;;;;;18.15;57.54;101168.64;107670;1259;71313;-88
2023/05/14 04:14:14;;;;;;;10.00;7.20;;;;;;;18.34;56.98;101167.83;107767;1259;71326;-89
2023/05/14 04:16:42;;;;;;;9.50;7.50;;;;;;;18.53;55.86;101165.90;107607;1261;62522;-89
2023/05/14 04:19:09;;;;;;;10.40;7.40;;;;;;;18.73;55.06;101164.39;107537;1259;61978;-89
2023/05/14 04:21:37;;;;;;;9.60;7.20;;;;;;;18.94;54.13;101169.29;107611;1259;74318;-90
2023/05/14 04:24:05;;;;;;;10.60;7.00;;;;;;;19.16;53.59;101173.11;107719;1260;71751;-89
2023/05/14 04:26:32;;;;;;;9.10;6.80;;;;;;;19.40;52.58;101165.62;107652;1259;72877;-90
2023/05/14 04:29:01;;;;;;;9.30;6.60;;;;;;;19.64;51.93;101168.13;107725;1259;62628;-90
2023/05/14 04:31:30;;;;;;;7.30;5.70;;;;;;;19.89;51.10;101164.45;107608;1259;61621;-89
2023/05/14 04:33:57;;;;;;;8.90;6.20;;;;;;;20.06;49.28;101161.48;107729;1259;74354;-90
2023/05/14 04:36:24;;;;;;;10.00;6.20;;;;;;;20.17;48.75;101160.38;107558;1259;71192;-90
2023/05/14 04:38:54;;;;;;;11.10;6.60;;;;;;;20.27;47.89;101162.30;107596;1265;74046;-92
2023/05/14 04:41:22;;;;;;;8.50;6.30;;;;;;;20.36;47.94;101166.20;107728;1259;61319;-90
2023/05/14 04:43:49;;;;;;;9.00;6.20;;;;;;;20.50;47.57;101172.25;107624;1259;62472;-88
2023/05/14 04:46:18;;;;;;;9.00;6.20;;;;;;;20.63;47.11;101168.23;107662;1260;75790;-89
2023/05/14 04:48:45;;;;;;;7.90;5.50;;;;;;;20.76;46.46;101168.73;107733;1265;73554;-89
2023/05/14 04:51:13;;;;;;;8.40;6.10;;;;;;;20.89;46.14;101170.90;107800;1260;74952;-89
2023/05/14 04:53:40;;;;;;;7.60;6.10;;;;;;;20.97;45.66;101169.92;108198;1259;59309;-84
2023/05/14 04:56:07;;;;;;;7.90;5.40;;;;;;;21.09;45.07;101172.86;108937;1259;60741;-89
2023/05/14 04:58:34;;;;;;;7.50;5.40;;;;;;;21.26;44.42;101166.31;108986;1259;75743;-86
2023/05/14 05:01:03;;;;;;;8.50;5.40;;;;;;;21.50;43.41;101167.09;108965;1259;72780;-92
2023/05/14 05:03:31;;;;;;;8.10;5.50;;;;;;;21.60;42.01;101163.64;108406;1259;72153;-92
2023/05/14 05:05:58;;;;;;;6.80;5.10;;;;;;;21.65;41.83;101161.50;107796;1259;61797;-90
2023/05/14 05:08:25;;;;;;;7.20;5.30;;;;;;;21.72;41.67;101159.59;107733;1264;61167;-90
2023/05/14 05:10:52;;;;;;;7.40;5.30;;;;;;;21.80;41.56;101161.20;107854;1259;74895;-90
2023/05/14 05:13:19;;;;;;;8.30;5.60;;;;;;;21.90;41.25;101161.77;107701;1260;71382;-89
2023/05/14 05:15:46;;;;;;;7.60;5.30;;;;;;;21.94;40.91;101161.06;107842;1260;71986;-88
2023/05/14 05:18:13;;;;;;;8.10;5.20;;;;;;;21.97;40.61;101164.48;107822;1260;61212;-89
2023/05/14 05:20:40;;;;;;;6.70;5.30;;;;;;;21.99;40.20;101162.75;107651;1259;62366;-90
2023/05/14 05:23:07;;;;;;;8.60;5.60;;;;;;;22.00;39.83;101162.92;107568;1260;75695;-90
2023/05/14 05:25:34;;;;;;;7.20;5.20;;;;;;;22.00;39.66;101163.47;107855;1260;72991;-91
2023/05/14 05:28:02;;;;;;;6.60;5.00;;;;;;;22.06;39.42;101163.54;107849;1260;72606;-89
2023/05/14 05:30:29;;;;;;;6.50;4.80;;;;;;;22.11;39.18;101163.48;107701;1259;62337;-90
2023/05/14 05:32:56;;;;;;;7.80;4.90;;;;;;;22.17;38.78;101166.16;107651;1259;62490;-89
2023/05/14 05:35:23;;;;;;;6.50;4.70;;;;;;;22.21;38.52;101165.58;107781;1259;75331;-90
2023/05/14 05:37:51;;;;;;;7.50;5.00;;;;;;;22.23;38.27;101164.30;107823;1259;74766;-92
2023/05/14 05:40:18;;;;;;;6.40;4.70;;;;;;;22.27;37.87;101162.12;107819;1263;74144;-90
2023/05/14 05:42:45;;;;;;;7.90;4.60;;;;;;;22.31;37.83;101162.98;107699;1259;61173;-90
2023/05/14 05:45:12;;;;;;;7.20;4.60;;;;;;;22.37;38.16;101163.23;107887;1263;61259;-91
2023/05/14 05:47:39;;;;;;;9.10;5.30;;;;;;;22.45;38.30;101159.54;107689;1260;75795;-90
2023/05/14 05:50:08;;;;;;;8.00;4.90;;;;;;;22.54;38.32;101159.69;107756;1260;70866;-90
2023/05/14 05:52:35;;;;;;;6.50;4.90;;;;;;;22.59;38.11;101162.50;107664;1260;73045;-90
2023/05/14 05:55:03;;;;;;;7.90;4.80;;;;;;;22.66;37.88;101164.60;107767;1260;62176;-92
2023/05/14 05:57:30;;;;;;;6.50;5.00;;;;;;;22.73;38.06;101161.45;107692;1259;61323;-91
2023/05/14 05:59:57;;;;;;;8.40;4.80;;;;;;;22.81;37.74;101162.35;107791;1259;76301;-92
2023/05/14 06:02:25;;;;;;;6.90;5.10;;;;;;;22.90;37.26;101165.15;107694;1260;73894;-92
2023/05/14 06:04:52;;;;;;;5.90;4.60;;;;;;;22.97;36.91;101164.03;107698;1259;75055;-90
2023/05/14 06:07:22;;;;;;;7.70;4.70;;;;;;;23.05;36.85;101159.71;107719;1259;62260;-92
2023/05/14 06:09:49;;;;;;;7.20;4.40;;;;;;;23.16;36.59;101166.02;107747;1263;62663;-90
2023/05/14 06:12:19;;;;;;;6.60;5.00;;;;;;;23.29;36.33;101166.84;107795;1259;73203;-89
2023/05/14 06:14:47;;;;;;;7.60;4.50;;;;;;;23.44;36.26;101162.83;107760;1263;71530;-92
2023/05/14 06:17:14;;;;;;;5.80;4.40;;;;;;;23.57;35.66;101162.81;107715;1260;73666;-89
2023/05/14 06:19:44;;;;;;;6.90;4.50;;;;;;;23.69;35.67;101160.87;107838;1260;61209;-90
2023/05/14 06:22:11;;;;;;;10.30;4.60;;;;;;;23.81;35.28;101156.36;107818;1259;62187;-89
2023/05/14 06:24:38;;;;;;;7.40;4.60;;;;;;;23.96;34.85;101158.93;107795;1261;73525;-91
2023/05/14 06:27:06;;;;;;;6.00;4.30;;;;;;;24.15;33.83;101154.25;107687;1261;72468;-90
2023/05/14 06:29:33;;;;;;;5.60;4.10;;;;;;;24.15;33.49;101157.30;107765;1259;72220;-91
2023/05/14 06:32:02;;;;;;;9.00;4.60;;;;;;;24.15;33.66;101154.53;107764;1259;63170;-91
2023/05/14 06:34:30;;;;;;;6.50;4.20;;;;;;;24.21;33.68;101155.57;107655;1259;62377;-92
2023/05/14 06:36:57;;;;;;;6.50;4.30;;;;;;;24.31;33.14;101155.33;107785;1259;75847;-89
2023/05/14 06:39:24;;;;;;;5.80;3.60;;;;;;;24.40;32.55;101150.94;107616;1260;73092;-91
2023/05/14 06:41:52;;;;;;;5.60;4.10;;;;;;;24.46;32.62;101147.42;107589;1262;73771;-91
2023/05/14 06:44:20;;;;;;;6.70;4.40;;;;;;;24.54;32.48;101149.66;107637;1263;62453;-91
2023/05/14 06:46:48;;;;;;;6.80;4.20;;;;;;;24.63;32.22;101148.33;107759;1259;61208;-91
2023/05/14 06:49:17;;;;;;;9.30;4.30;;;;;;;24.66;31.88;101147.58;107686;1266;76652;-92
2023/05/14 06:51:48;;;;;;;7.30;4.40;;;;;;;24.70;32.12;101147.88;107704;1262;73822;-91
2023/05/14 06:54:15;;;;;;;6.20;3.70;;;;;;;24.81;31.88;101146.13;107619;1261;74611;-91
2023/05/14 06:56:43;;;;;;;5.90;3.70;;;;;;;24.92;31.21;101148.86;107644;1260;61451;-91
2023/05/14 06:59:10;;;;;;;6.70;3.90;;;;;;;25.05;30.57;101149.25;107627;1261;62530;-91
2023/05/14 07:01:37;;;;;;;7.10;4.00;;;;;;;25.16;30.29;101150.42;107849;1259;76900;-90
2023/05/14 07:04:07;;;;;;;5.90;3.40;;;;;;;25.29;29.99;101147.56;107848;1261;74848;-90
2023/05/14 07:06:35;;;;;;;5.80;3.80;;;;;;;25.50;28.82;101147.28;108037;1261;75013;-89
2023/05/14 07:09:02;;;;;;;6.00;3.60;;;;;;;25.59;28.55;101140.98;107663;1263;61393;-91
2023/05/14 07:11:29;;;;;;;4.80;3.40;;;;;;;25.65;28.38;101143.36;107754;1260;61370;-90
2023/05/14 07:13:57;;;;;;;6.90;3.60;;;;;;;25.70;28.23;101141.73;107618;1265;75784;-90
2023/05/14 07:16:25;;;;;;;4.60;3.60;;;;;;;25.71;27.97;101138.46;107708;1261;74722;-90
2023/05/14 07:18:52;;;;;;;5.20;3.40;;;;;;;25.72;27.98;101136.93;107665;1265;72080;-90
2023/05/14 07:21:19;;;;;;;6.20;3.40;;;;;;;25.69;28.14;101134.82;107690;1263;61185;-89
2023/05/14 07:23:46;;;;;;;7.50;3.30;;;;;;;25.77;28.14;101140.59;107668;1260;61161;-90
2023/05/14 07:26:13;;;;;;;5.80;3.30;;;;;;;25.85;27.67;101133.34;107715;1261;73840;-91
2023/05/14 07:28:40;;;;;;;5.70;3.20;;;;;;;25.88;27.19;101135.64;107764;1259;74493;-92
2023/05/14 07:31:08;;;;;;;6.60;3.30;;;;;;;25.96;27.03;101133.59;107591;1263;72994;-90
2023/05/14 07:33:35;;;;;;;7.20;3.40;;;;;;;26.08;26.19;101132.20;107688;1260;61382;-90
2023/05/14 07:36:02;;;;;;;5.50;3.00;;;;;;;26.14;26.12;101129.25;107758;1260;61129;-91
2023/05/14 07:38:29;;;;;;;3.70;2.90;;;;;;;26.19;25.79;101127.48;107742;1260;76645;-91
2023/05/14 07:40:57;;;;;;;4.80;3.00;;;;;;;26.23;25.45;101127.52;107646;1260;74060;-90
2023/05/14 07:43:24;;;;;;;5.30;3.20;;;;;;;26.24;24.43;101125.92;107692;1260;72418;-90
2023/05/14 07:45:51;;;;;;;4.90;2.90;;;;;;;26.29;24.52;101122.92;107755;1260;61368;-89
2023/05/14 07:48:18;;;;;;;5.00;3.30;;;;;;;26.39;24.49;101116.85;107585;1260;61302;-91
2023/05/14 07:50:47;;;;;;;5.60;2.90;;;;;;;26.50;24.41;101116.29;107723;1263;72742;-90
2023/05/14 07:53:15;;;;;;;6.00;3.00;;;;;;;26.60;24.58;101121.05;107827;1260;73099;-90
2023/05/14 07:55:44;;;;;;;5.00;2.90;;;;;;;26.69;24.00;101121.27;107567;1260;74175;-91
2023/05/14 07:58:11;;;;;;;8.80;3.30;;;;;;;26.75;23.85;101124.15;107636;1260;61389;-92
2023/05/14 08:00:38;;;;;;;8.60;3.20;;;;;;;26.81;23.73;101121.48;107581;1260;60056;-92
2023/05/14 08:03:06;;;;;;;4.50;3.20;;;;;;;26.87;23.53;101126.35;107808;1263;75720;-90
2023/05/14 08:05:33;;;;;;;4.80;3.10;;;;;;;26.93;23.29;101122.11;107651;1260;71768;-91
2023/05/14 08:08:01;;;;;;;5.60;3.00;;;;;;;26.98;23.22;101118.91;107643;1261;74053;-90
2023/05/14 08:10:28;;;;;;;5.50;3.70;;;;;;;27.03;23.13;101116.00;107750;1260;61615;-90
2023/05/14 08:12:56;;;;;;;4.40;3.30;;;;;;;27.12;23.36;101115.83;107724;1259;61144;-90
2023/05/14 08:15:23;;;;;;;5.70;3.20;;;;;;;27.12;23.50;101114.17;107684;1261;76334;-90
2023/05/14 08:18:02;;;;;;;4.50;3.00;;;;;;;27.13;23.57;101106.05;107849;1263;73966;-90
2023/05/14 08:20:31;;;;;;;10.10;3.50;;;;;;;27.17;23.51;101098.24;108039;1260;74780;-90
2023/05/14 08:23:00;;;;;;;4.80;3.20;;;;;;;27.18;23.23;101098.27;107842;1260;62122;-93
2023/05/14 08:25:28;;;;;;;5.10;3.30;;;;;;;27.18;23.12;101094.66;108047;1265;61085;-91
2023/05/14 08:27:58;;;;;;;4.90;2.90;;;;;;;27.21;23.03;101092.30;108061;1261;73416;-93
2023/05/14 08:30:29;;;;;;;5.70;3.20;;;;;;;27.25;22.71;101090.13;107982;1259;73035;-93
2023/05/14 08:32:58;;;;;;;5.50;3.00;;;;;;;27.32;21.84;101085.05;108028;1260;75885;-91
2023/05/14 08:35:26;;;;;;;5.10;3.30;;;;;;;27.36;21.73;101082.62;107952;1259;61876;-92
2023/05/14 08:37:53;;;;;;;3.80;2.70;;;;;;;27.45;22.12;101080.76;107933;1259;60013;-90
2023/05/14 08:40:20;;;;;;;4.00;3.00;;;;;;;27.53;22.01;101080.39;107928;1261;75995;-92
2023/05/14 08:42:51;;;;;;;5.80;3.10;;;;;;;27.63;22.29;101079.51;108014;1260;74863;-91
2023/05/14 08:45:20;;;;;;;5.10;2.60;;;;;;;27.74;21.80;101067.11;107896;1261;72773;-92
2023/05/14 08:47:50;;;;;;;4.90;2.90;;;;;;;27.79;21.36;101063.09;107868;1261;59533;-90
2023/05/14 08:50:21;;;;;;;4.70;2.90;;;;;;;27.74;20.97;101062.39;107961;1259;61671;-92
2023/05/14 08:52:52;;;;;;;5.10;3.20;;;;;;;27.74;21.00;101060.29;107975;1259;74714;-91
2023/05/14 08:55:20;;;;;;;3.90;2.60;;;;;;;27.76;20.62;101066.38;107698;1261;75200;-91
2023/05/14 08:57:49;;;;;;;5.00;2.70;;;;;;;27.78;20.59;101065.98;107933;1260;73814;-90
2023/05/14 09:00:18;;;;;;;5.30;2.90;;;;;;;27.71;20.59;101069.47;107785;1260;61993;-90
2023/05/14 09:02:45;;;;;;;6.30;3.00;;;;;;;27.56;20.92;101070.12;107619;1260;61311;-90
2023/05/14 09:05:12;;;;;;;5.40;3.00;;;;;;;27.45;21.27;101069.33;107662;1261;73845;-91
2023/05/14 09:07:40;;;;;;;4.90;2.80;;;;;;;27.37;20.88;101070.09;107792;1260;72817;-88
2023/05/14 09:10:08;;;;;;;5.10;2.90;;;;;;;27.32;21.37;101064.90;107752;1259;71090;-92
2023/05/14 09:12:35;;;;;;;6.10;3.00;;;;;;;27.31;21.35;101059.45;107869;1260;59347;-90
2023/05/14 09:15:03;;;;;;;6.00;2.80;;;;;;;27.33;20.98;101059.90;107751;1258;61008;-88
2023/05/14 09:17:31;;;;;;;4.30;2.60;;;;;;;27.32;20.88;101056.91;107716;1261;77249;-90
2023/05/14 09:19:59;;;;;;;4.20;2.80;;;;;;;27.25;20.89;101055.17;107825;1260;72866;-92
2023/05/14 09:22:27;;;;;;;10.00;3.30;;;;;;;27.21;21.15;101052.75;107743;1260;72815;-91
2023/05/14 09:25:10;;;;;;;3.80;2.80;;;;;;;27.15;20.74;101051.66;107657;1260;61192;-91
2023/05/14 09:27:38;;;;;;;4.20;2.60;;;;;;;27.04;20.83;101047.71;107716;1260;62088;-91
2023/05/14 09:30:12;;;;;;;6.30;3.10;;;;;;;26.98;20.78;101047.09;107816;1260;76498;-90
2023/05/14 09:32:44;;;;;;;5.30;2.90;;;;;;;26.94;20.95;101043.15;107577;1259;75240;-90
2023/05/14 09:35:22;;;;;;;4.50;2.70;;;;;;;26.96;20.68;101041.73;107622;1260;73802;-89
2023/05/14 09:37:51;;;;;;;5.00;2.60;;;;;;;26.96;20.89;101042.59;107712;1261;61212;-89
2023/05/14 09:40:21;;;;;;;5.30;3.00;;;;;;;26.97;20.90;101040.58;107711;1265;59206;-89
2023/05/14 09:42:49;;;;;;;5.70;2.90;;;;;;;27.02;20.88;101037.64;107807;1260;76310;-90
2023/05/14 09:45:16;;;;;;;7.40;3.10;;;;;;;27.13;20.66;101038.92;108035;1261;72261;-92
2023/05/14 09:47:43;;;;;;;7.70;2.70;;;;;;;27.22;20.97;101031.76;107644;1259;73009;-92
2023/05/14 09:50:12;;;;;;;5.50;2.90;;;;;;;27.29;21.08;101033.65;107806;1259;61206;-92
2023/05/14 09:52:39;;;;;;;7.00;2.90;;;;;;;27.39;20.84;101030.02;107766;1259;61450;-91
2023/05/14 09:55:06;;;;;;;4.80;3.00;;;;;;;27.50;20.87;101028.13;107645;1260;74130;-89
2023/05/14 09:57:34;;;;;;;7.80;3.10;;;;;;;27.61;20.97;101024.04;107517;1260;74970;-90
2023/05/14 10:00:01;;;;;;;4.90;3.00;;;;;;;27.70;20.96;101024.05;107688;1260;71486;-90
2023/05/14 10:02:40;;;;;;;5.80;2.70;;;;;;;27.79;21.00;101027.23;107765;1260;61369;-92
2023/05/14 10:05:08;;;;;;;9.10;3.00;;;;;;;27.88;21.01;101025.67;107711;1260;61271;-89
2023/05/14 10:07:41;;;;;;;5.50;2.70;;;;;;;27.94;20.97;101023.52;107712;1260;72817;-92
2023/05/14 10:10:13;;;;;;;8.30;3.10;;;;;;;28.03;20.65;101019.69;107730;1260;71528;-91
2023/05/14 10:12:41;;;;;;;6.10;2.50;;;;;;;28.20;20.20;101017.41;107750;1260;74818;-90
2023/05/14 10:15:25;;;;;;;4.90;2.80;;;;;;;28.36;20.19;101018.16;107573;1260;61452;-89
2023/05/14 10:17:59;;;;;;;8.60;3.30;;;;;;;28.60;19.58;101021.40;107768;1259;62489;-88
2023/05/14 10:20:27;;;;;;;4.40;2.80;;;;;;;28.79;19.14;101014.77;107709;1259;76174;-89
2023/05/14 10:22:54;;;;;;;3.90;2.40;;;;;;;28.95;18.94;101009.73;107661;1260;73512;-90
2023/05/14 10:25:21;;;;;;;4.10;2.80;;;;;;;29.09;19.21;101009.10;107731;1267;64816;-89
2023/05/14 10:27:50;;;;;;;6.60;3.10;;;;;;;29.26;19.03;101007.67;107896;1260;60397;-91
2023/05/14 10:30:25;;;;;;;;;;;;;;;29.40;18.80;101007.77;107776;1260;62839;-88
2023/05/14 10:33:07;;;;;;;9.20;2.90;;;;;;;29.45;18.93;101004.45;108123;1261;67084;-91
2023/05/14 10:35:54;;;;;;;6.10;2.80;;;;;;;29.56;18.32;101000.17;107661;1260;66063;-91
2023/05/14 10:38:25;;;;;;;5.90;2.90;;;;;;;29.65;18.14;100997.39;107622;1260;66303;-91
2023/05/14 10:41:03;;;;;;;5.20;2.60;;;;;;;29.78;18.18;100996.67;107706;1260;61118;-91
2023/05/14 10:43:37;;;;;;;5.40;3.20;;;;;;;29.89;17.85;100995.84;107890;1260;61144;-88
2023/05/14 10:46:06;;;;;;;6.30;2.80;;;;;;;30.00;18.02;100992.88;107669;1260;68216;-90
2023/05/14 10:48:33;;;;;;;5.30;2.70;;;;;;;30.01;18.06;100993.19;107649;1260;66179;-91
2023/05/14 10:51:01;;;;;;;6.80;3.10;;;;;;;30.01;17.77;100993.27;107624;1261;65178;-91
2023/05/14 10:53:36;;;;;;;5.90;2.90;;;;;;;29.95;17.63;100995.34;107681;1261;59531;-91
2023/05/14 10:56:15;;;;;;;4.30;2.70;;;;;;;29.91;17.59;100993.41;107689;1259;61103;-89
2023/05/14 10:58:43;;;;;;;4.50;2.80;;;;;;;29.73;17.41;100986.63;107646;1260;73790;-90
2023/05/14 11:01:11;;;;;;;5.50;2.40;;;;;;;29.55;17.65;100985.85;107731;1261;67541;-91
2023/05/14 11:03:43;;;;;;;7.20;3.00;;;;;;;29.38;17.61;100986.91;107691;1259;64967;-91
2023/05/14 11:06:12;;;;;;;5.40;2.80;;;;;;;29.23;18.34;100985.55;107637;1260;61270;-89
2023/05/14 11:08:40;;;;;;;3.40;2.60;;;;;;;29.08;18.56;100984.64;107672;1260;61243;-91
2023/05/14 11:11:07;;;;;;;7.90;3.20;;;;;;;29.00;18.27;100983.20;107634;1260;66626;-89
2023/05/14 11:13:35;;;;;;;5.20;2.90;;;;;;;28.97;18.12;100987.61;106550;1259;1330681;-90
2023/05/14 11:16:02;;;;;;;4.70;2.50;;;;;;;28.91;17.95;100986.10;107624;1260;61240;-89
2023/05/14 11:18:53;;;;;;;6.20;2.90;;;;;;;28.84;18.17;100985.08;107428;1260;61206;-91